Terminal Aerodrome Forecast
Issued by NWS

Home | Current Version | Previous Version | Graphics & Text | Print | Product List | Glossary On
Versions: 1 2 3 4 5 6 7 8 9 10 11 12 13 14
000
FTUS43 KBIS 140500
TAFDIK
TAF
KDIK 140531Z 1406/1506 28005KT P6SM SCT035 BKN045
     FM140900 36008KT P6SM SCT020 BKN030
      TEMPO 1409/1413 -SN BKN020 OVC030
     FM141500 33008KT P6SM SCT050
     FM150200 19005KT P6SM SKC
      AMD NOT SKED=

USA.gov is the U.S. government's official web portal to all federal, state and local government web resources and services.